Time;durP1;ratioP1;P1;durP2;ratioP2;P2;SDS_P1;SDS_P2;PMS_P1;PMS_P2;Temp;Humidity;BMP_temperature;BMP_pressure;BME280_temperature;BME280_humidity;BME280_pressure;Samples;Min_cycle;Max_cycle;Signal;HPM_P1;HPM_P2
2022/12/22 03:28:16;;;;;;;35.20;18.00;;;;;;;1.97;90.50;98189.55;420582;1292;108414;-40
2022/12/22 03:38:24;;;;;;;28.70;16.30;;;;;;;1.87;90.42;98175.09;420537;1295;98048;-40
2022/12/22 03:48:31;;;;;;;26.20;17.40;;;;;;;1.76;90.59;98167.96;420597;1298;111102;-40
2022/12/22 03:58:38;;;;;;;31.40;19.10;;;;;;;1.66;90.66;98163.20;420541;1298;108213;-40
2022/12/22 04:08:45;;;;;;;31.60;18.20;;;;;;;1.58;90.56;98146.99;420548;1290;98859;-39
2022/12/22 04:18:52;;;;;;;37.40;19.50;;;;;;;1.49;90.81;98139.70;420511;1299;107900;-40
2022/12/22 04:28:59;;;;;;;41.50;21.30;;;;;;;1.42;90.89;98134.31;420584;1287;98052;-40
2022/12/22 04:39:07;;;;;;;34.40;19.00;;;;;;;1.34;91.11;98119.18;420482;1299;111101;-41
2022/12/22 04:49:14;;;;;;;31.30;18.60;;;;;;;1.34;91.42;98120.68;420540;1298;108500;-40
2022/12/22 04:59:21;;;;;;;30.30;19.20;;;;;;;1.42;91.45;98126.02;420486;1290;98561;-41
2022/12/22 05:09:29;;;;;;;35.30;20.60;;;;;;;1.45;91.55;98111.04;420627;1302;106285;-39
2022/12/22 05:19:35;;;;;;;38.80;21.50;;;;;;;1.45;91.49;98098.37;420477;1298;98837;-38
2022/12/22 05:29:43;;;;;;;40.30;20.50;;;;;;;1.47;91.51;98105.89;420685;1299;112133;-40
2022/12/22 05:39:49;;;;;;;31.40;17.50;;;;;;;1.47;91.56;98104.44;420439;1300;109870;-40
2022/12/22 05:49:56;;;;;;;37.30;22.50;;;;;;;1.52;91.65;98097.71;420552;1292;98072;-40
2022/12/22 06:00:05;;;;;;;40.30;21.30;;;;;;;1.55;91.75;98096.13;420626;1297;107277;-39
2022/12/22 06:10:14;;;;;;;33.60;19.20;;;;;;;1.54;91.87;98080.05;420581;1298;101526;-40
2022/12/22 06:20:21;;;;;;;33.80;19.90;;;;;;;1.49;92.16;98075.52;420785;1298;110354;-39
2022/12/22 06:30:29;;;;;;;35.30;20.70;;;;;;;1.47;92.12;98077.66;420596;1283;108229;-40
2022/12/22 06:40:40;;;;;;;43.40;22.40;;;;;;;1.48;91.98;98078.35;420722;1291;98012;-42
2022/12/22 06:50:47;;;;;;;45.40;23.40;;;;;;;1.49;92.14;98082.73;420479;1292;108528;-41
2022/12/22 07:00:56;;;;;;;45.40;23.10;;;;;;;1.52;92.29;98079.31;420595;1301;98609;-40
2022/12/22 07:11:03;;;;;;;42.90;24.10;;;;;;;1.59;92.37;98065.91;420556;1289;112174;-40
2022/12/22 07:21:11;;;;;;;40.70;22.60;;;;;;;1.70;92.45;98076.05;420635;1291;108272;-39
2022/12/22 07:31:19;;;;;;;45.20;26.60;;;;;;;1.84;92.64;98061.24;420647;1299;101617;-41
2022/12/22 07:51:51;;;;;;;47.40;26.20;;;;;;;2.13;92.61;98053.70;420647;1291;99240;-39
2022/12/22 08:01:57;;;;;;;63.10;33.20;;;;;;;2.25;92.74;98043.70;420551;1292;113954;-42
2022/12/22 08:12:06;;;;;;;59.40;30.30;;;;;;;2.45;93.16;98043.45;420671;1292;107880;-40
2022/12/22 08:22:13;;;;;;;46.20;26.30;;;;;;;2.76;93.25;98030.01;420722;1298;99239;-39
2022/12/22 08:32:20;;;;;;;46.70;26.10;;;;;;;2.94;93.07;98026.75;420587;1291;108424;-40
2022/12/22 08:42:28;;;;;;;46.00;26.40;;;;;;;2.98;93.00;98023.06;420742;1292;99235;-40
2022/12/22 08:52:35;;;;;;;51.90;26.30;;;;;;;3.05;93.05;98026.77;420790;1291;112200;-41
2022/12/22 09:02:42;;;;;;;42.20;23.70;;;;;;;3.12;93.27;98001.85;420721;1298;108713;-40
2022/12/22 09:22:57;;;;;;;54.80;28.30;;;;;;;3.40;93.29;97990.37;420937;1298;109477;-39
2022/12/22 09:43:12;;;;;;;30.90;17.40;;;;;;;3.70;93.10;97918.90;420851;1298;112794;-40
2022/12/22 09:53:20;;;;;;;33.70;17.20;;;;;;;3.84;93.01;97908.80;420747;1296;106586;-39
2022/12/22 10:03:29;;;;;;;25.90;16.00;;;;;;;4.05;93.07;97894.58;420691;1298;99226;-40
2022/12/22 10:13:36;;;;;;;37.50;20.70;;;;;;;4.26;92.99;97879.30;420733;1295;107775;-39
2022/12/22 10:23:47;;;;;;;32.60;19.30;;;;;;;4.30;93.00;97871.27;420691;1291;99243;-39
2022/12/22 10:33:56;;;;;;;23.30;14.90;;;;;;;4.43;92.70;97850.22;420814;1298;110799;-39
2022/12/22 10:44:04;;;;;;;22.10;14.50;;;;;;;4.52;92.71;97826.41;420642;1298;109486;-40
2022/12/22 10:54:24;;;;;;;19.00;12.30;;;;;;;4.66;92.53;97815.52;420663;1299;99307;-41
2022/12/22 11:04:31;;;;;;;27.60;14.90;;;;;;;4.63;92.62;97818.36;420771;1294;107892;-40
2022/12/22 11:14:38;;;;;;;39.90;19.60;;;;;;;4.84;92.61;97810.09;420678;1290;98035;-40
2022/12/22 11:24:45;;;;;;;30.40;14.50;;;;;;;4.72;92.32;97802.16;420677;1298;110209;-40
2022/12/22 11:34:51;;;;;;;22.60;13.90;;;;;;;4.78;92.22;97792.05;420505;1298;109683;-39
2022/12/22 11:44:56;;;;;;;31.40;16.70;;;;;;;4.80;91.96;97787.89;420795;1290;99236;-40
2022/12/22 11:55:22;;;;;;;25.10;15.00;;;;;;;4.81;92.18;97775.02;420758;1298;106829;-39
2022/12/22 12:16:05;;;;;;;13.90;9.70;;;;;;;5.00;91.69;97749.92;420817;1298;113329;-40
2022/12/22 12:26:18;;;;;;;24.50;13.20;;;;;;;4.99;91.80;97740.61;420730;1293;107244;-39
2022/12/22 12:36:36;;;;;;;15.10;9.50;;;;;;;4.92;91.74;97737.15;420687;1298;99214;-39
2022/12/22 12:46:44;;;;;;;18.50;10.10;;;;;;;4.90;91.48;97731.86;420826;1292;108134;-40
2022/12/22 12:56:58;;;;;;;16.20;9.20;;;;;;;4.86;91.59;97729.77;420863;1298;98019;-40
2022/12/22 13:07:06;;;;;;;26.10;13.70;;;;;;;4.73;91.47;97721.86;420842;1298;111003;-39
2022/12/22 13:17:32;;;;;;;19.10;10.80;;;;;;;4.60;91.49;97715.68;420670;1298;108223;-39
2022/12/22 13:27:40;;;;;;;18.30;11.50;;;;;;;4.69;91.50;97719.46;420733;1292;99212;-38
2022/12/22 13:37:47;;;;;;;16.60;11.70;;;;;;;4.82;91.44;97717.63;420661;1291;107661;-39
2022/12/22 13:47:55;;;;;;;18.70;12.40;;;;;;;4.87;91.32;97708.67;420536;1291;99272;-40
2022/12/22 13:58:00;;;;;;;27.00;14.30;;;;;;;4.82;91.28;97703.21;420645;1298;111473;-40
2022/12/22 14:08:05;;;;;;;25.40;15.20;;;;;;;4.60;91.31;97694.77;420648;1298;108550;-40
2022/12/22 14:18:14;;;;;;;27.60;14.40;;;;;;;4.45;91.26;97676.39;420633;1294;99243;-38
2022/12/22 14:28:25;;;;;;;26.40;14.60;;;;;;;4.37;91.22;97680.21;420740;1292;106898;-40
2022/12/22 14:38:38;;;;;;;27.60;14.60;;;;;;;4.29;91.25;97682.33;420288;1291;420159;-41
2022/12/22 14:48:47;;;;;;;24.00;14.70;;;;;;;4.16;91.22;97680.85;420755;1291;111216;-38
2022/12/22 14:59:07;;;;;;;27.20;14.30;;;;;;;3.97;91.31;97677.62;420771;1298;107683;-39
2022/12/22 15:09:26;;;;;;;28.60;16.80;;;;;;;3.81;91.35;97664.33;420894;1291;99125;-40
2022/12/22 15:19:56;;;;;;;27.10;16.50;;;;;;;3.68;91.34;97649.70;420728;1294;109664;-39
2022/12/22 15:30:06;;;;;;;29.20;18.50;;;;;;;3.59;91.45;97645.30;420669;1298;99256;-40
2022/12/22 15:40:15;;;;;;;29.60;18.60;;;;;;;3.51;91.59;97625.74;420823;1298;112502;-41
2022/12/22 15:50:22;;;;;;;29.30;16.50;;;;;;;3.48;91.63;97617.36;420825;1291;107502;-40
2022/12/22 16:00:29;;;;;;;36.10;19.50;;;;;;;3.47;91.74;97626.53;420717;1291;99246;-40
2022/12/22 16:10:36;;;;;;;42.60;22.30;;;;;;;3.47;91.88;97635.38;420614;1298;108346;-40
2022/12/22 16:20:45;;;;;;;38.60;21.50;;;;;;;3.45;92.03;97632.56;420885;1298;98835;-40
2022/12/22 16:30:53;;;;;;;29.40;17.20;;;;;;;3.49;91.85;97632.19;420734;1298;110928;-39
2022/12/22 16:41:02;;;;;;;31.20;17.80;;;;;;;3.56;91.91;97639.72;420799;1287;107819;-38
2022/12/22 16:51:14;;;;;;;27.30;14.80;;;;;;;3.65;91.92;97643.13;420853;1291;99277;-40
2022/12/22 17:01:21;;;;;;;25.80;15.80;;;;;;;3.73;91.99;97641.31;420867;1298;107055;-39
2022/12/22 17:21:35;;;;;;;40.70;21.70;;;;;;;3.79;92.14;97635.57;420865;1298;111605;-39
2022/12/22 17:31:42;;;;;;;28.10;17.10;;;;;;;3.81;91.97;97626.83;420841;1291;108531;-40
2022/12/22 17:41:50;;;;;;;30.80;16.00;;;;;;;3.91;91.94;97623.11;420967;1298;99257;-39
2022/12/22 17:52:03;;;;;;;27.10;15.70;;;;;;;3.99;91.94;97625.20;420851;1294;107442;-39
2022/12/22 18:02:10;;;;;;;32.10;16.80;;;;;;;4.04;91.94;97623.95;420811;1283;98035;-39
2022/12/22 18:12:21;;;;;;;39.90;21.50;;;;;;;3.99;91.89;97619.38;420892;1298;111480;-39
2022/12/22 18:22:30;;;;;;;43.10;21.70;;;;;;;3.90;91.94;97607.98;420911;1290;107936;-40
2022/12/22 18:32:39;;;;;;;35.80;21.30;;;;;;;3.86;91.81;97604.95;420849;1298;98114;-40
2022/12/22 18:42:46;;;;;;;38.50;21.60;;;;;;;3.89;91.70;97603.96;420874;1291;108369;-41
2022/12/22 18:52:55;;;;;;;35.90;20.80;;;;;;;3.93;91.75;97603.20;420788;1298;99173;-40
2022/12/22 19:03:13;;;;;;;62.10;28.40;;;;;;;3.91;91.85;97596.14;420780;1298;109974;-40
2022/12/22 19:13:22;;;;;;;54.80;26.80;;;;;;;3.83;91.79;97587.92;420807;1298;109437;-38
2022/12/22 19:23:30;;;;;;;37.70;21.80;;;;;;;3.83;91.67;97588.24;420735;1290;99132;-39
2022/12/22 19:43:46;;;;;;;32.90;18.40;;;;;;;3.95;91.77;97571.73;420624;1298;98379;-39
2022/12/22 20:03:59;;;;;;;44.80;21.60;;;;;;;3.90;91.83;97577.00;420704;1298;110036;-39
2022/12/22 20:14:06;;;;;;;40.30;20.50;;;;;;;3.82;91.88;97589.98;420607;1298;118819;-40
2022/12/22 20:24:12;;;;;;;39.30;19.60;;;;;;;3.82;91.85;97593.85;420718;1298;108172;-40
2022/12/22 20:34:20;;;;;;;35.30;19.10;;;;;;;3.87;91.98;97587.52;420755;1298;99870;-40
2022/12/22 20:44:27;;;;;;;31.80;16.80;;;;;;;3.93;91.97;97583.58;420661;1291;112223;-40
2022/12/22 20:54:33;;;;;;;33.20;19.90;;;;;;;3.97;91.82;97595.77;420738;1290;108143;-40
2022/12/22 21:04:39;;;;;;;48.80;26.00;;;;;;;3.97;91.88;97601.13;420861;1298;98921;-39
2022/12/22 21:14:48;;;;;;;58.90;27.50;;;;;;;3.85;91.91;97596.11;420782;1298;108519;-40
2022/12/22 21:24:55;;;;;;;46.60;23.90;;;;;;;3.80;91.91;97600.73;420725;1292;98512;-41
2022/12/22 21:35:02;;;;;;;32.40;19.00;;;;;;;3.87;91.94;97603.46;420755;1291;112388;-40
2022/12/22 21:45:14;;;;;;;30.50;17.70;;;;;;;3.93;91.71;97605.10;420682;1298;107307;-39
2022/12/22 21:55:20;;;;;;;27.00;16.10;;;;;;;3.99;91.82;97602.11;420807;1297;99259;-40
2022/12/22 22:05:25;;;;;;;50.40;24.80;;;;;;;3.98;91.91;97604.98;420778;1297;108366;-40
2022/12/22 22:15:33;;;;;;;36.80;19.90;;;;;;;3.86;91.98;97608.94;420647;1292;99141;-40
2022/12/22 22:25:40;;;;;;;30.50;17.60;;;;;;;3.76;91.81;97607.79;420911;1299;111639;-39
2022/12/22 22:45:53;;;;;;;28.10;15.00;;;;;;;3.69;92.15;97603.89;420768;1292;99246;-40
2022/12/22 22:56:01;;;;;;;33.50;19.30;;;;;;;3.68;92.38;97615.52;420748;1304;107763;-40
2022/12/22 23:06:12;;;;;;;20.90;14.10;;;;;;;3.71;92.53;97623.06;420649;1297;99265;-39
2022/12/22 23:26:26;;;;;;;23.40;13.40;;;;;;;3.73;92.71;97624.13;420809;1304;107473;-40
2022/12/22 23:36:34;;;;;;;23.90;14.10;;;;;;;3.73;92.83;97625.55;420652;1300;99249;-39
2022/12/22 23:46:41;;;;;;;23.40;14.70;;;;;;;3.74;92.87;97631.94;420767;1304;108761;-40
2022/12/22 23:56:48;;;;;;;18.50;12.30;;;;;;;3.74;93.01;97630.96;420720;1292;99217;-41
